Time;durP1;ratioP1;P1;durP2;ratioP2;P2;SDS_P1;SDS_P2;PMS_P1;PMS_P2;Temp;Humidity;BMP_temperature;BMP_pressure;BME280_temperature;BME280_humidity;BME280_pressure;Samples;Min_cycle;Max_cycle;Signal;HPM_P1;HPM_P2
2023/04/23 00:01:19;;;;;;;;;3.00;3.00;;;;;;;;5053085;28;9183;-83
2023/04/23 00:03:49;;;;;;;;;2.00;2.00;;;;;;;;5052971;28;9286;-84
2023/04/23 00:06:17;;;;;;;;;1.67;1.67;;;;;;;;5052406;28;9201;-84
2023/04/23 00:08:45;;;;;;;;;4.33;3.00;;;;;;;;5042475;28;9196;-83
2023/04/23 00:11:12;;;;;;;;;1.67;1.33;;;;;;;;5049298;28;9190;-84
2023/04/23 00:13:40;;;;;;;;;4.00;2.00;;;;;;;;5052593;28;9193;-84
2023/04/23 00:16:09;;;;;;;;;4.00;3.00;;;;;;;;5052743;28;9342;-84
2023/04/23 00:18:36;;;;;;;;;1.33;1.33;;;;;;;;5052232;28;9265;-84
2023/04/23 00:21:07;;;;;;;;;1.00;1.00;;;;;;;;5053047;28;10060;-84
2023/04/23 00:23:34;;;;;;;;;3.00;2.00;;;;;;;;5052502;28;10165;-83
2023/04/23 00:26:02;;;;;;;;;2.00;2.00;;;;;;;;5052913;28;9181;-84
2023/04/23 00:28:29;;;;;;;;;2.67;2.67;;;;;;;;5051317;28;9336;-83
2023/04/23 00:30:59;;;;;;;;;3.00;1.33;;;;;;;;5051331;28;9313;-83
2023/04/23 00:33:26;;;;;;;;;1.00;1.00;;;;;;;;5051513;28;9281;-83
2023/04/23 00:35:54;;;;;;;;;1.00;1.00;;;;;;;;5052143;28;9198;-84
2023/04/23 00:38:23;;;;;;;;;6.67;3.00;;;;;;;;5052152;28;9278;-84
2023/04/23 00:40:50;;;;;;;;;2.00;2.00;;;;;;;;5052380;28;9453;-84
2023/04/23 00:43:18;;;;;;;;;4.75;2.25;;;;;;;;5055547;28;9259;-83
2023/04/23 00:45:45;;;;;;;;;2.00;2.00;;;;;;;;5041152;28;9477;-84
2023/04/23 00:48:13;;;;;;;;;2.00;2.00;;;;;;;;5050365;28;10521;-83
2023/04/23 00:50:40;;;;;;;;;4.00;2.00;;;;;;;;5050483;28;9483;-83
2023/04/23 00:53:07;;;;;;;;;2.00;2.00;;;;;;;;5051940;28;9633;-84
2023/04/23 00:55:36;;;;;;;;;3.00;2.00;;;;;;;;5050522;28;9479;-84
2023/04/23 00:58:05;;;;;;;;;3.50;2.00;;;;;;;;5052904;28;9607;-84
2023/04/23 01:00:32;;;;;;;;;2.00;2.00;;;;;;;;5052103;28;9461;-84
2023/04/23 01:03:00;;;;;;;;;2.75;2.00;;;;;;;;5052517;28;9472;-84
2023/04/23 01:05:28;;;;;;;;;2.00;2.00;;;;;;;;5054149;28;9543;-84
2023/04/23 01:07:56;;;;;;;;;1.75;1.75;;;;;;;;5055199;28;9688;-85
2023/04/23 01:10:23;;;;;;;;;1.00;1.00;;;;;;;;5053865;28;9706;-85
2023/04/23 01:12:53;;;;;;;;;2.50;1.00;;;;;;;;5056909;28;9566;-83
2023/04/23 01:15:21;;;;;;;;;2.00;1.75;;;;;;;;5063233;28;9547;-84
2023/04/23 01:17:48;;;;;;;;;1.00;1.00;;;;;;;;5050020;28;9549;-84
2023/04/23 01:20:15;;;;;;;;;2.25;1.00;;;;;;;;5051225;28;9711;-84
2023/04/23 01:22:44;;;;;;;;;1.75;1.75;;;;;;;;5051650;28;9591;-84
2023/04/23 01:25:12;;;;;;;;;2.25;1.00;;;;;;;;5050950;28;9767;-83
2023/04/23 01:27:39;;;;;;;;;1.00;1.00;;;;;;;;5050947;28;9601;-83
2023/04/23 01:30:08;;;;;;;;;2.00;0.50;;;;;;;;5050281;28;9704;-83
2023/04/23 01:32:35;;;;;;;;;4.50;1.75;;;;;;;;5050721;28;9712;-83
2023/04/23 01:35:03;;;;;;;;;1.25;1.25;;;;;;;;5051380;28;9777;-83
2023/04/23 01:37:31;;;;;;;;;2.00;2.00;;;;;;;;5049990;28;9775;-84
2023/04/23 01:40:00;;;;;;;;;4.75;1.75;;;;;;;;5050709;28;9775;-82
2023/04/23 01:42:27;;;;;;;;;2.00;2.00;;;;;;;;5050180;28;9890;-84
2023/04/23 01:44:55;;;;;;;;;1.00;1.00;;;;;;;;5050178;28;9974;-84
2023/04/23 01:47:22;;;;;;;;;4.00;2.00;;;;;;;;5051385;28;9687;-83
2023/04/23 01:49:50;;;;;;;;;2.25;2.25;;;;;;;;5050874;28;10033;-84
2023/04/23 01:52:17;;;;;;;;;2.00;2.00;;;;;;;;5038294;28;10042;-84
2023/04/23 01:54:44;;;;;;;;;1.75;1.75;;;;;;;;5051059;28;10175;-83
2023/04/23 01:57:13;;;;;;;;;1.00;1.00;;;;;;;;5039176;28;10227;-84
2023/04/23 01:59:41;;;;;;;;;1.00;1.00;;;;;;;;5049929;28;10313;-84
2023/04/23 02:02:12;;;;;;;;;2.00;2.00;;;;;;;;5050399;28;10196;-84
2023/04/23 02:04:40;;;;;;;;;2.75;1.25;;;;;;;;5050388;28;10586;-84
2023/04/23 02:07:07;;;;;;;;;1.00;1.00;;;;;;;;5049883;28;10476;-84
2023/04/23 02:09:35;;;;;;;;;1.00;1.00;;;;;;;;5050607;28;10502;-85
2023/04/23 02:12:02;;;;;;;;;0.75;0.75;;;;;;;;5049755;28;10488;-85
2023/04/23 02:14:31;;;;;;;;;1.00;1.00;;;;;;;;5050045;28;10616;-83
2023/04/23 02:16:58;;;;;;;;;1.00;1.00;;;;;;;;5049988;28;10612;-84
2023/04/23 02:19:26;;;;;;;;;1.25;1.25;;;;;;;;5051098;28;10440;-84
2023/04/23 02:21:53;;;;;;;;;3.00;2.00;;;;;;;;5050719;28;10685;-83
2023/04/23 02:24:21;;;;;;;;;2.00;1.00;;;;;;;;5051225;28;10599;-84
2023/04/23 02:26:48;;;;;;;;;3.00;1.25;;;;;;;;5048981;28;10829;-84
2023/04/23 02:29:15;;;;;;;;;2.00;2.00;;;;;;;;5052631;28;10825;-84
2023/04/23 02:31:44;;;;;;;;;4.00;2.25;;;;;;;;5050393;28;10893;-83
2023/04/23 02:34:11;;;;;;;;;2.25;2.25;;;;;;;;5050987;28;10885;-83
2023/04/23 02:36:38;;;;;;;;;1.00;1.00;;;;;;;;5050299;28;10820;-83
2023/04/23 02:39:06;;;;;;;;;1.00;1.00;;;;;;;;5052016;28;11062;-84
2023/04/23 02:41:33;;;;;;;;;3.00;1.50;;;;;;;;5052825;28;10902;-84
2023/04/23 02:44:00;;;;;;;;;1.00;1.00;;;;;;;;5052545;28;10921;-84
2023/04/23 02:46:28;;;;;;;;;2.25;0.75;;;;;;;;5051922;28;10969;-84
2023/04/23 02:48:56;;;;;;;;;1.00;1.00;;;;;;;;5051873;28;10856;-84
2023/04/23 02:51:24;;;;;;;;;1.00;1.00;;;;;;;;5054043;28;10893;-84
2023/04/23 02:53:51;;;;;;;;;1.50;1.00;;;;;;;;5049949;28;10904;-84
2023/04/23 02:56:18;;;;;;;;;1.00;1.00;;;;;;;;5055343;28;10878;-84
2023/04/23 02:58:45;;;;;;;;;1.00;1.00;;;;;;;;5046403;28;11067;-85
2023/04/23 03:01:13;;;;;;;;;1.00;1.00;;;;;;;;5053868;28;10923;-84
2023/04/23 03:03:40;;;;;;;;;2.00;2.00;;;;;;;;5050162;28;11153;-84
2023/04/23 03:06:09;;;;;;;;;2.00;2.00;;;;;;;;5049277;28;11069;-84
2023/04/23 03:08:36;;;;;;;;;2.00;2.00;;;;;;;;5064880;28;11071;-83
2023/04/23 03:11:04;;;;;;;;;6.50;4.00;;;;;;;;5052723;28;11408;-84
2023/04/23 03:13:31;;;;;;;;;4.00;2.50;;;;;;;;5057804;28;11153;-83
2023/04/23 03:16:00;;;;;;;;;4.75;2.75;;;;;;;;5056439;28;11036;-84
2023/04/23 03:18:27;;;;;;;;;3.00;3.00;;;;;;;;5050796;28;10969;-83
2023/04/23 03:20:55;;;;;;;;;2.75;1.25;;;;;;;;5048338;28;11258;-83
2023/04/23 03:23:24;;;;;;;;;6.25;4.00;;;;;;;;5050256;28;11127;-83
2023/04/23 03:25:51;;;;;;;;;4.50;4.50;;;;;;;;5050674;28;11971;-83
2023/04/23 03:28:18;;;;;;;;;9.25;5.25;;;;;;;;5056477;28;11129;-83
2023/04/23 03:30:46;;;;;;;;;2.75;2.75;;;;;;;;5048115;28;10948;-83
2023/04/23 03:33:13;;;;;;;;;4.00;4.00;;;;;;;;5048604;28;10735;-83
2023/04/23 03:35:40;;;;;;;;;7.75;5.00;;;;;;;;5051225;28;11559;-83
2023/04/23 03:38:07;;;;;;;;;4.00;4.00;;;;;;;;5055503;28;10921;-83
2023/04/23 03:40:36;;;;;;;;;4.75;3.00;;;;;;;;5048978;28;10777;-84
2023/04/23 03:43:03;;;;;;;;;4.00;4.00;;;;;;;;5065849;28;10825;-85
2023/04/23 03:45:32;;;;;;;;;5.00;3.75;;;;;;;;5060698;28;10786;-83
2023/04/23 03:48:01;;;;;;;;;5.50;3.00;;;;;;;;5052817;28;10604;-84
2023/04/23 03:50:33;;;;;;;;;2.00;2.00;;;;;;;;5062403;28;10527;-84
2023/04/23 03:53:00;;;;;;;;;6.00;4.75;;;;;;;;5060581;28;10689;-84
2023/04/23 03:55:28;;;;;;;;;4.50;3.25;;;;;;;;5048707;28;10759;-85
2023/04/23 03:57:56;;;;;;;;;3.25;3.25;;;;;;;;5048243;28;10705;-83
2023/04/23 04:00:24;;;;;;;;;3.25;2.00;;;;;;;;5048693;28;10484;-84
2023/04/23 04:02:51;;;;;;;;;3.25;3.25;;;;;;;;5049361;28;10546;-85
2023/04/23 04:05:18;;;;;;;;;5.00;3.25;;;;;;;;5049385;28;10623;-85
2023/04/23 04:07:45;;;;;;;;;4.00;4.00;;;;;;;;5051595;28;10558;-83
2023/04/23 04:10:13;;;;;;;;;7.25;3.50;;;;;;;;5049820;28;10713;-83
2023/04/23 04:12:40;;;;;;;;;4.00;4.00;;;;;;;;5047761;28;10409;-84
2023/04/23 04:15:10;;;;;;;;;5.00;5.00;;;;;;;;5047504;28;10591;-83
2023/04/23 04:17:37;;;;;;;;;4.00;4.00;;;;;;;;5046975;28;10649;-83
2023/04/23 04:20:06;;;;;;;;;3.50;1.25;;;;;;;;5049534;28;10547;-84
2023/04/23 04:22:34;;;;;;;;;8.00;5.00;;;;;;;;5048066;28;10386;-83
2023/04/23 04:25:01;;;;;;;;;5.25;4.25;;;;;;;;5051373;28;10690;-84
2023/04/23 04:27:28;;;;;;;;;4.00;4.00;;;;;;;;5052735;28;10611;-83
2023/04/23 04:29:56;;;;;;;;;4.25;4.25;;;;;;;;5049585;28;10523;-83
2023/04/23 04:32:25;;;;;;;;;5.00;2.75;;;;;;;;5046798;28;10629;-86
2023/04/23 04:34:53;;;;;;;;;3.00;3.00;;;;;;;;5045261;28;10681;-84
2023/04/23 04:37:24;;;;;;;;;6.50;3.75;;;;;;;;5051699;28;10402;-83
2023/04/23 04:39:53;;;;;;;;;4.00;4.00;;;;;;;;5051091;28;10752;-85
2023/04/23 04:42:20;;;;;;;;;5.00;5.00;;;;;;;;5051647;28;10627;-84
2023/04/23 04:44:51;;;;;;;;;4.75;3.50;;;;;;;;5052212;28;10633;-83
2023/04/23 04:47:19;;;;;;;;;2.00;2.00;;;;;;;;5041526;28;10694;-84
2023/04/23 04:49:48;;;;;;;;;6.50;5.00;;;;;;;;5053345;28;10689;-84
2023/04/23 04:52:15;;;;;;;;;5.00;4.25;;;;;;;;5052167;28;10855;-84
2023/04/23 04:54:43;;;;;;;;;5.00;5.00;;;;;;;;5053941;28;10763;-84
2023/04/23 04:57:10;;;;;;;;;4.75;4.75;;;;;;;;5067757;28;10718;-84
2023/04/23 04:59:37;;;;;;;;;8.00;3.50;;;;;;;;5051667;28;10856;-82
2023/04/23 05:02:04;;;;;;;;;5.25;5.25;;;;;;;;5038841;28;10650;-83
2023/04/23 05:04:32;;;;;;;;;4.25;4.25;;;;;;;;5049943;28;10846;-79
2023/04/23 05:07:00;;;;;;;;;6.75;5.00;;;;;;;;5061774;28;10773;-80
2023/04/23 05:09:27;;;;;;;;;9.75;7.25;;;;;;;;5063768;28;10793;-85
2023/04/23 05:11:55;;;;;;;;;6.00;6.00;;;;;;;;5051677;28;10878;-80
2023/04/23 05:14:24;;;;;;;;;6.75;6.75;;;;;;;;5050154;28;10866;-78
2023/04/23 05:16:52;;;;;;;;;4.50;4.50;;;;;;;;5050830;28;10764;-80
2023/04/23 05:19:19;;;;;;;;;11.25;5.50;;;;;;;;5051642;28;10814;-80
2023/04/23 05:21:46;;;;;;;;;5.75;4.50;;;;;;;;5050981;28;10765;-79
2023/04/23 05:24:15;;;;;;;;;14.00;8.00;;;;;;;;5051062;28;10776;-75
2023/04/23 05:26:42;;;;;;;;;4.50;4.50;;;;;;;;5050902;28;10862;-77
2023/04/23 05:29:09;;;;;;;;;5.00;5.00;;;;;;;;5051748;28;10757;-78
2023/04/23 05:31:36;;;;;;;;;4.00;4.00;;;;;;;;5050125;28;10580;-75
2023/04/23 05:34:03;;;;;;;;;8.50;5.75;;;;;;;;5049792;28;11459;-77
2023/04/23 05:36:31;;;;;;;;;5.00;3.25;;;;;;;;5049625;28;10745;-76
2023/04/23 05:38:58;;;;;;;;;1.25;1.25;;;;;;;;5049197;28;10619;-74
2023/04/23 05:41:26;;;;;;;;;5.00;5.00;;;;;;;;5049137;28;10519;-73
2023/04/23 05:43:54;;;;;;;;;6.00;6.00;;;;;;;;5048663;28;10678;-78
2023/04/23 05:46:21;;;;;;;;;6.75;6.25;;;;;;;;5054407;28;10637;-75
2023/04/23 05:48:48;;;;;;;;;5.00;5.00;;;;;;;;5057021;28;10609;-74
2023/04/23 05:51:16;;;;;;;;;6.00;6.00;;;;;;;;5048740;28;10530;-76
2023/04/23 05:53:43;;;;;;;;;5.00;4.50;;;;;;;;5049884;28;10530;-78
2023/04/23 05:56:10;;;;;;;;;4.00;4.00;;;;;;;;5048939;28;10534;-74
2023/04/23 05:58:38;;;;;;;;;5.75;4.00;;;;;;;;5049588;28;10471;-73
2023/04/23 06:01:06;;;;;;;;;6.25;5.75;;;;;;;;5049788;28;10385;-72
2023/04/23 06:03:33;;;;;;;;;4.50;3.75;;;;;;;;5050253;28;10388;-72
2023/04/23 06:06:01;;;;;;;;;6.00;3.00;;;;;;;;5050330;28;10438;-75
2023/04/23 06:08:28;;;;;;;;;3.75;3.75;;;;;;;;5049399;28;10430;-71
2023/04/23 06:10:55;;;;;;;;;3.25;3.25;;;;;;;;5049312;28;10791;-72
2023/04/23 06:13:22;;;;;;;;;3.00;3.00;;;;;;;;5049362;28;10253;-74
2023/04/23 06:15:51;;;;;;;;;4.00;4.00;;;;;;;;5049541;28;10083;-73
2023/04/23 06:18:18;;;;;;;;;4.50;4.25;;;;;;;;5048800;28;10191;-72
2023/04/23 06:20:47;;;;;;;;;4.75;4.75;;;;;;;;5049000;28;10317;-72
2023/04/23 06:23:14;;;;;;;;;4.75;4.75;;;;;;;;5048489;28;10537;-72
2023/04/23 06:25:41;;;;;;;;;4.00;4.00;;;;;;;;5048993;28;10116;-76
2023/04/23 06:28:08;;;;;;;;;6.50;5.00;;;;;;;;5048814;28;10106;-76
2023/04/23 06:30:35;;;;;;;;;4.00;4.00;;;;;;;;5048544;28;11048;-72
2023/04/23 06:33:05;;;;;;;;;5.00;3.25;;;;;;;;5049142;28;10821;-76
2023/04/23 06:35:32;;;;;;;;;4.75;4.75;;;;;;;;5049177;28;10206;-75
2023/04/23 06:38:00;;;;;;;;;4.25;3.75;;;;;;;;5048974;28;10201;-76
2023/04/23 06:40:27;;;;;;;;;5.50;5.00;;;;;;;;5050367;28;10049;-78
2023/04/23 06:42:54;;;;;;;;;2.00;2.00;;;;;;;;5049949;28;10035;-74
2023/04/23 06:45:22;;;;;;;;;3.00;3.00;;;;;;;;5049956;28;10119;-81
2023/04/23 06:47:49;;;;;;;;;5.50;4.00;;;;;;;;5058288;28;9858;-77
2023/04/23 06:50:18;;;;;;;;;3.00;3.00;;;;;;;;5059798;28;10027;-71
2023/04/23 06:52:45;;;;;;;;;5.00;3.00;;;;;;;;5053801;28;9940;-76
2023/04/23 06:55:13;;;;;;;;;2.00;2.00;;;;;;;;5051799;28;9930;-78
2023/04/23 06:57:40;;;;;;;;;2.75;2.75;;;;;;;;5057010;28;9905;-73
2023/04/23 07:00:09;;;;;;;;;3.00;3.00;;;;;;;;5052419;28;9937;-75
2023/04/23 07:02:37;;;;;;;;;3.50;3.50;;;;;;;;5054409;28;10595;-73
2023/04/23 07:05:04;;;;;;;;;3.25;3.00;;;;;;;;5047900;28;10023;-75
2023/04/23 07:07:35;;;;;;;;;2.50;2.50;;;;;;;;5048067;28;10008;-76
2023/04/23 07:10:02;;;;;;;;;3.25;3.25;;;;;;;;5048336;28;9952;-72
2023/04/23 07:12:30;;;;;;;;;2.25;2.25;;;;;;;;5048097;28;9931;-71
2023/04/23 07:14:57;;;;;;;;;3.25;3.25;;;;;;;;5048524;28;10143;-73
2023/04/23 07:17:24;;;;;;;;;4.25;4.25;;;;;;;;5047936;28;9862;-72
2023/04/23 07:19:51;;;;;;;;;3.00;3.00;;;;;;;;5048542;28;10026;-73
2023/04/23 07:22:18;;;;;;;;;4.25;4.25;;;;;;;;5048019;28;10078;-72
2023/04/23 07:24:47;;;;;;;;;3.00;2.50;;;;;;;;5048175;28;9910;-75
2023/04/23 07:27:14;;;;;;;;;7.25;3.75;;;;;;;;5047818;28;10009;-74
2023/04/23 07:29:42;;;;;;;;;5.75;4.00;;;;;;;;5047465;28;9934;-72
2023/04/23 07:32:09;;;;;;;;;6.00;4.25;;;;;;;;5046957;28;9915;-75
2023/04/23 07:34:36;;;;;;;;;5.25;3.00;;;;;;;;5048153;28;9942;-74
2023/04/23 07:37:03;;;;;;;;;4.00;4.00;;;;;;;;5047931;28;10015;-79
2023/04/23 07:39:32;;;;;;;;;5.00;5.00;;;;;;;;5048249;28;9941;-78
2023/04/23 07:42:02;;;;;;;;;2.50;2.50;;;;;;;;5047744;28;10852;-76
2023/04/23 07:44:29;;;;;;;;;6.00;3.50;;;;;;;;5047726;28;10136;-74
2023/04/23 07:46:58;;;;;;;;;6.00;4.25;;;;;;;;5047766;28;10129;-71
2023/04/23 07:49:26;;;;;;;;;3.00;3.00;;;;;;;;5039737;28;9935;-75
2023/04/23 07:51:53;;;;;;;;;4.00;3.00;;;;;;;;5047103;28;10019;-79
2023/04/23 07:54:20;;;;;;;;;3.00;3.00;;;;;;;;5047943;28;10046;-76
2023/04/23 07:56:47;;;;;;;;;4.25;4.25;;;;;;;;5048448;28;10016;-74
2023/04/23 07:59:16;;;;;;;;;3.75;3.75;;;;;;;;5049532;28;10111;-76
2023/04/23 08:01:43;;;;;;;;;4.00;4.00;;;;;;;;5051141;28;10216;-79
2023/04/23 08:04:11;;;;;;;;;3.75;3.75;;;;;;;;5050816;28;10054;-76
2023/04/23 08:06:38;;;;;;;;;5.00;5.00;;;;;;;;5051321;28;10750;-75
2023/04/23 08:09:05;;;;;;;;;2.25;2.25;;;;;;;;5038296;28;10829;-79
2023/04/23 08:11:32;;;;;;;;;6.00;4.00;;;;;;;;5040222;28;10038;-78
2023/04/23 08:14:00;;;;;;;;;6.00;5.00;;;;;;;;5051487;28;10725;-78
2023/04/23 08:16:29;;;;;;;;;4.00;4.00;;;;;;;;5051522;28;10936;-80
2023/04/23 08:18:57;;;;;;;;;6.00;4.50;;;;;;;;5050430;28;9971;-77
2023/04/23 08:21:25;;;;;;;;;2.75;2.75;;;;;;;;5051641;28;10107;-82
2023/04/23 08:23:52;;;;;;;;;4.00;4.00;;;;;;;;5052484;28;10044;-80
2023/04/23 08:26:19;;;;;;;;;5.75;5.75;;;;;;;;5051837;28;10018;-81
2023/04/23 08:28:46;;;;;;;;;5.25;5.00;;;;;;;;5051901;28;10052;-72
2023/04/23 08:31:15;;;;;;;;;4.00;4.00;;;;;;;;5052043;28;9996;-79
2023/04/23 08:33:44;;;;;;;;;5.25;5.25;;;;;;;;5053365;28;9869;-83
2023/04/23 08:36:11;;;;;;;;;4.25;2.75;;;;;;;;5055126;28;9944;-80
2023/04/23 08:38:38;;;;;;;;;5.75;5.25;;;;;;;;5059448;28;9961;-73
2023/04/23 08:41:07;;;;;;;;;4.25;4.25;;;;;;;;5062839;28;9943;-73
2023/04/23 08:43:40;;;;;;;;;4.50;4.50;;;;;;;;5052725;28;9873;-79
2023/04/23 08:46:11;;;;;;;;;7.75;6.00;;;;;;;;5054932;28;10876;-72
2023/04/23 08:48:40;;;;;;;;;6.50;6.50;;;;;;;;5063483;28;10024;-72
2023/04/23 08:51:10;;;;;;;;;5.75;5.75;;;;;;;;5050542;28;10129;-76
2023/04/23 08:53:37;;;;;;;;;4.00;4.00;;;;;;;;5051183;28;10825;-76
2023/04/23 08:56:06;;;;;;;;;4.25;4.25;;;;;;;;5050645;28;10313;-72
2023/04/23 08:58:34;;;;;;;;;6.25;6.25;;;;;;;;5056901;28;10258;-76
2023/04/23 09:01:01;;;;;;;;;7.25;7.00;;;;;;;;5049665;28;9899;-73
2023/04/23 09:03:29;;;;;;;;;7.00;7.00;;;;;;;;5049979;28;10025;-80
2023/04/23 09:05:57;;;;;;;;;5.00;5.00;;;;;;;;5049983;28;9938;-76
2023/04/23 09:08:26;;;;;;;;;5.50;5.50;;;;;;;;5050546;28;9928;-80
2023/04/23 09:10:55;;;;;;;;;7.00;7.00;;;;;;;;5050261;28;9865;-77
2023/04/23 09:13:22;;;;;;;;;7.00;6.00;;;;;;;;5050649;28;9784;-74
2023/04/23 09:15:50;;;;;;;;;7.50;6.00;;;;;;;;5050740;28;9756;-79
2023/04/23 09:18:17;;;;;;;;;4.25;4.25;;;;;;;;5049949;28;9861;-76
2023/04/23 09:20:45;;;;;;;;;8.00;8.00;;;;;;;;5050031;28;9647;-73
2023/04/23 09:23:15;;;;;;;;;8.75;8.00;;;;;;;;5049583;28;9743;-76
2023/04/23 09:25:43;;;;;;;;;6.75;6.75;;;;;;;;5050267;28;10016;-75
2023/04/23 09:28:14;;;;;;;;;6.75;5.25;;;;;;;;5049458;28;9831;-81
2023/04/23 09:30:44;;;;;;;;;3.75;3.75;;;;;;;;5049816;28;9735;-75
2023/04/23 09:33:15;;;;;;;;;7.50;7.50;;;;;;;;5049410;28;9705;-76
2023/04/23 09:35:42;;;;;;;;;5.00;5.00;;;;;;;;5043230;28;9708;-81
2023/04/23 09:38:10;;;;;;;;;9.00;7.75;;;;;;;;5042718;28;9707;-73
2023/04/23 09:40:37;;;;;;;;;12.00;8.00;;;;;;;;5049632;28;10587;-77
2023/04/23 09:43:07;;;;;;;;;7.75;6.50;;;;;;;;5050192;28;9781;-73
2023/04/23 09:45:35;;;;;;;;;4.00;4.00;;;;;;;;5038372;28;9651;-80
2023/04/23 09:48:02;;;;;;;;;7.00;7.00;;;;;;;;5049788;28;9728;-75
2023/04/23 09:50:34;;;;;;;;;12.50;8.00;;;;;;;;5052623;28;9742;-76
2023/04/23 09:53:01;;;;;;;;;8.50;8.50;;;;;;;;5053027;28;9818;-80
2023/04/23 09:55:33;;;;;;;;;8.50;8.00;;;;;;;;5050127;28;9654;-71
2023/04/23 09:58:01;;;;;;;;;9.50;7.50;;;;;;;;5049368;28;9747;-76
2023/04/23 10:00:33;;;;;;;;;7.00;4.75;;;;;;;;5050001;28;9531;-72
2023/04/23 10:03:01;;;;;;;;;5.25;5.25;;;;;;;;5049732;28;9613;-80
2023/04/23 10:05:28;;;;;;;;;7.00;7.00;;;;;;;;5049860;28;9551;-72
2023/04/23 10:07:56;;;;;;;;;5.50;5.50;;;;;;;;5037408;28;9476;-76
2023/04/23 10:10:24;;;;;;;;;6.00;6.00;;;;;;;;5050113;28;9581;-77
2023/04/23 10:12:53;;;;;;;;;5.67;5.67;;;;;;;;5050220;28;9443;-72
2023/04/23 10:15:20;;;;;;;;;5.00;5.00;;;;;;;;5049591;28;9556;-75
2023/04/23 10:17:49;;;;;;;;;8.00;7.00;;;;;;;;5049255;28;9328;-77
2023/04/23 10:20:17;;;;;;;;;4.67;4.33;;;;;;;;5049661;28;9481;-81
2023/04/23 10:22:45;;;;;;;;;6.00;4.00;;;;;;;;5044950;28;9420;-79
2023/04/23 10:25:13;;;;;;;;;7.00;5.67;;;;;;;;5044274;28;9400;-74
2023/04/23 10:27:45;;;;;;;;;6.00;6.00;;;;;;;;5051903;28;9268;-84
2023/04/23 10:30:13;;;;;;;;;4.00;4.00;;;;;;;;5048476;28;9301;-75
2023/04/23 10:32:41;;;;;;;;;6.00;6.00;;;;;;;;5058090;28;9259;-75
2023/04/23 10:35:10;;;;;;;;;6.67;6.00;;;;;;;;5049915;28;9188;-73
2023/04/23 10:37:38;;;;;;;;;7.00;7.00;;;;;;;;5064335;28;9198;-76
2023/04/23 10:40:10;;;;;;;;;4.67;4.67;;;;;;;;5057658;28;9369;-73
2023/04/23 10:42:38;;;;;;;;;3.33;3.33;;;;;;;;5053067;28;9304;-74
2023/04/23 10:45:13;;;;;;;;;5.00;5.00;;;;;;;;5056563;28;9086;-75
2023/04/23 10:47:43;;;;;;;;;6.00;6.00;;;;;;;;5052424;28;9458;-72
2023/04/23 10:50:23;;;;;;;;;4.67;4.67;;;;;;;;5047802;28;9988;-72
2023/04/23 10:52:52;;;;;;;;;4.33;4.33;;;;;;;;5048137;28;9427;-74
2023/04/23 10:55:21;;;;;;;;;4.00;4.00;;;;;;;;5047654;28;9340;-74
2023/04/23 10:58:00;;;;;;;;;6.67;5.00;;;;;;;;5048941;28;9270;-72
2023/04/23 11:00:28;;;;;;;;;5.33;5.33;;;;;;;;5051528;28;9255;-78
2023/04/23 11:02:56;;;;;;;;;3.00;3.00;;;;;;;;5047623;28;9404;-75
2023/04/23 11:05:26;;;;;;;;;5.00;5.00;;;;;;;;5047978;28;9351;-78
2023/04/23 11:08:03;;;;;;;;;7.00;7.00;;;;;;;;5048618;28;9327;-77
2023/04/23 11:10:32;;;;;;;;;6.00;6.00;;;;;;;;5048056;28;9889;-76
2023/04/23 11:13:22;;;;;;;;;5.67;5.00;;;;;;;;5047867;28;9400;-78
2023/04/23 11:15:50;;;;;;;;;5.00;5.00;;;;;;;;5047323;28;9420;-76
2023/04/23 11:18:17;;;;;;;;;6.67;4.00;;;;;;;;5047379;28;9316;-75
2023/04/23 11:20:49;;;;;;;;;3.00;3.00;;;;;;;;5048248;28;9304;-81
2023/04/23 11:23:31;;;;;;;;;4.00;3.00;;;;;;;;5047713;28;9378;-78
2023/04/23 11:26:00;;;;;;;;;6.00;6.00;;;;;;;;5047722;28;9301;-78
2023/04/23 11:28:28;;;;;;;;;4.00;4.00;;;;;;;;5047141;28;9258;-75
2023/04/23 11:30:55;;;;;;;;;5.00;5.00;;;;;;;;5039678;28;9218;-79
2023/04/23 11:33:22;;;;;;;;;4.67;4.67;;;;;;;;5053140;28;9359;-74
2023/04/23 11:35:51;;;;;;;;;4.67;4.67;;;;;;;;5055212;28;10139;-76
2023/04/23 11:38:19;;;;;;;;;5.00;5.00;;;;;;;;5051442;28;9403;-76
2023/04/23 11:40:48;;;;;;;;;3.33;3.33;;;;;;;;5055076;28;9408;-72
2023/04/23 11:43:19;;;;;;;;;4.33;4.33;;;;;;;;5055574;28;9409;-74
2023/04/23 11:45:46;;;;;;;;;8.00;6.33;;;;;;;;5054746;28;9361;-72
2023/04/23 11:48:14;;;;;;;;;5.67;5.67;;;;;;;;5055666;28;10689;-72
2023/04/23 11:50:42;;;;;;;;;6.67;6.33;;;;;;;;5054887;28;9416;-74
2023/04/23 11:53:11;;;;;;;;;5.67;5.67;;;;;;;;5055186;28;9344;-75
2023/04/23 11:55:42;;;;;;;;;3.67;3.67;;;;;;;;5055325;28;9415;-78
2023/04/23 11:58:10;;;;;;;;;5.00;5.00;;;;;;;;5054153;28;9247;-73
2023/04/23 12:00:37;;;;;;;;;6.00;6.00;;;;;;;;5054672;28;9162;-72
2023/04/23 12:03:05;;;;;;;;;7.00;5.67;;;;;;;;5054949;28;9168;-72
2023/04/23 12:05:35;;;;;;;;;5.67;5.67;;;;;;;;5050295;28;9193;-78
2023/04/23 12:08:11;;;;;;;;;3.33;3.33;;;;;;;;5055411;28;9308;-73
2023/04/23 12:10:48;;;;;;;;;5.00;3.00;;;;;;;;5061336;28;9089;-76
2023/04/23 12:13:16;;;;;;;;;3.00;3.00;;;;;;;;5048129;28;9427;-78
2023/04/23 12:15:47;;;;;;;;;4.67;3.00;;;;;;;;5060647;28;9183;-78
2023/04/23 12:18:15;;;;;;;;;4.00;4.00;;;;;;;;5062951;28;9174;-81
2023/04/23 12:20:42;;;;;;;;;3.00;3.00;;;;;;;;5067901;28;9004;-78
2023/04/23 12:23:11;;;;;;;;;3.00;3.00;;;;;;;;5056940;28;9199;-72
2023/04/23 12:25:41;;;;;;;;;3.00;3.00;;;;;;;;5057018;28;9907;-75
2023/04/23 12:28:09;;;;;;;;;5.67;2.33;;;;;;;;5067235;28;9189;-71
2023/04/23 12:30:43;;;;;;;;;4.00;4.00;;;;;;;;5062483;28;8908;-74
2023/04/23 12:33:11;;;;;;;;;3.00;3.00;;;;;;;;5058200;28;8917;-70
2023/04/23 12:35:39;;;;;;;;;3.50;3.50;;;;;;;;5055066;28;8865;-74
2023/04/23 12:38:07;;;;;;;;;3.75;3.75;;;;;;;;5058494;28;8845;-75
2023/04/23 12:40:35;;;;;;;;;2.67;2.67;;;;;;;;5060872;28;8853;-76
2023/04/23 12:43:02;;;;;;;;;3.00;3.00;;;;;;;;5058099;28;8931;-75
2023/04/23 12:45:37;;;;;;;;;2.33;2.33;;;;;;;;5055813;28;8965;-77
2023/04/23 12:48:04;;;;;;;;;3.00;3.00;;;;;;;;5043897;28;8936;-79
2023/04/23 12:50:32;;;;;;;;;5.33;4.00;;;;;;;;5050846;28;9228;-72
2023/04/23 12:52:59;;;;;;;;;3.33;3.33;;;;;;;;5061943;28;9014;-74
2023/04/23 12:55:26;;;;;;;;;3.33;2.00;;;;;;;;5050668;28;9046;-75
2023/04/23 12:57:54;;;;;;;;;2.00;2.00;;;;;;;;5049637;28;9079;-77
2023/04/23 13:00:22;;;;;;;;;3.33;3.00;;;;;;;;5041730;28;9078;-76
2023/04/23 13:02:50;;;;;;;;;2.00;2.00;;;;;;;;5046297;28;9236;-74
2023/04/23 13:05:17;;;;;;;;;4.33;4.00;;;;;;;;5049884;28;9252;-75
2023/04/23 13:07:45;;;;;;;;;2.75;2.75;;;;;;;;5049251;28;9338;-75
2023/04/23 13:10:12;;;;;;;;;2.00;2.00;;;;;;;;5050048;28;9485;-71
2023/04/23 13:12:40;;;;;;;;;3.33;2.67;;;;;;;;5050901;28;9339;-77
2023/04/23 13:15:11;;;;;;;;;3.33;3.33;;;;;;;;5050457;28;9485;-75
2023/04/23 13:17:38;;;;;;;;;1.67;1.33;;;;;;;;5049921;28;9351;-79
2023/04/23 13:20:07;;;;;;;;;3.75;2.00;;;;;;;;5049838;28;9440;-75
2023/04/23 13:22:34;;;;;;;;;1.00;1.00;;;;;;;;5049666;28;10213;-75
2023/04/23 13:25:02;;;;;;;;;1.00;1.00;;;;;;;;5049313;28;9446;-77
2023/04/23 13:27:30;;;;;;;;;2.00;2.00;;;;;;;;5062386;28;9474;-77
2023/04/23 13:29:57;;;;;;;;;3.33;2.00;;;;;;;;5049212;28;9329;-73
2023/04/23 13:32:30;;;;;;;;;1.00;1.00;;;;;;;;5048984;28;9333;-74
2023/04/23 13:34:59;;;;;;;;;1.33;1.33;;;;;;;;5049705;28;9266;-76
2023/04/23 13:37:27;;;;;;;;;0.00;0.00;;;;;;;;5038187;28;9557;-73
2023/04/23 13:39:54;;;;;;;;;0.00;0.00;;;;;;;;5049340;28;9084;-71
2023/04/23 13:42:21;;;;;;;;;0.00;0.00;;;;;;;;5050492;28;9278;-78
2023/04/23 13:44:48;;;;;;;;;0.00;0.00;;;;;;;;5050043;28;9168;-75
2023/04/23 13:47:15;;;;;;;;;0.00;0.00;;;;;;;;5049242;28;9169;-79
2023/04/23 13:49:44;;;;;;;;;1.33;0.00;;;;;;;;5050261;28;9251;-76
2023/04/23 13:52:11;;;;;;;;;0.33;0.33;;;;;;;;5050498;28;9170;-74
2023/04/23 13:54:39;;;;;;;;;0.00;0.00;;;;;;;;5050815;28;9226;-79
2023/04/23 13:57:06;;;;;;;;;0.00;0.00;;;;;;;;5049053;28;9284;-79
2023/04/23 13:59:33;;;;;;;;;1.00;0.00;;;;;;;;5050290;28;9067;-80
2023/04/23 14:02:00;;;;;;;;;0.00;0.00;;;;;;;;5050523;28;9134;-81
2023/04/23 14:04:31;;;;;;;;;0.00;0.00;;;;;;;;5051118;28;10103;-80
2023/04/23 14:06:59;;;;;;;;;0.67;0.67;;;;;;;;5052352;28;9385;-79
2023/04/23 14:09:29;;;;;;;;;0.00;0.00;;;;;;;;5062678;28;9329;-81
2023/04/23 14:11:56;;;;;;;;;0.00;0.00;;;;;;;;5066209;28;9239;-76
2023/04/23 14:14:24;;;;;;;;;0.00;0.00;;;;;;;;5061055;28;9486;-74
2023/04/23 14:16:51;;;;;;;;;0.00;0.00;;;;;;;;5055300;28;9397;-72
2023/04/23 14:19:18;;;;;;;;;0.00;0.00;;;;;;;;5065277;28;9614;-71
2023/04/23 14:21:45;;;;;;;;;0.00;0.00;;;;;;;;5069810;28;9389;-79
2023/04/23 14:24:22;;;;;;;;;0.00;0.00;;;;;;;;5050211;28;9511;-70
2023/04/23 14:26:50;;;;;;;;;0.00;0.00;;;;;;;;5048655;28;9687;-72
2023/04/23 14:29:24;;;;;;;;;0.50;0.00;;;;;;;;5053517;28;9400;-77
2023/04/23 14:31:51;;;;;;;;;0.00;0.00;;;;;;;;5053114;28;9453;-73
2023/04/23 14:34:19;;;;;;;;;2.00;0.00;;;;;;;;5048029;28;9404;-72
2023/04/23 14:36:47;;;;;;;;;0.00;0.00;;;;;;;;5048037;28;9251;-75
2023/04/23 14:39:15;;;;;;;;;0.00;0.00;;;;;;;;5048011;28;9259;-77
2023/04/23 14:41:43;;;;;;;;;0.00;0.00;;;;;;;;5048315;28;9194;-76
2023/04/23 14:44:10;;;;;;;;;0.00;0.00;;;;;;;;5048302;28;9091;-72
2023/04/23 14:46:38;;;;;;;;;0.00;0.00;;;;;;;;5047883;28;9649;-79
2023/04/23 14:49:05;;;;;;;;;0.00;0.00;;;;;;;;5048467;28;9206;-74
2023/04/23 14:51:32;;;;;;;;;0.00;0.00;;;;;;;;5048647;28;9022;-76
2023/04/23 14:53:59;;;;;;;;;0.00;0.00;;;;;;;;5048534;28;9193;-78
2023/04/23 14:56:27;;;;;;;;;0.00;0.00;;;;;;;;5047651;28;9328;-73